Time;durP1;ratioP1;P1;durP2;ratioP2;P2;SDS_P1;SDS_P2;PMS_P1;PMS_P2;Temp;Humidity;BMP_temperature;BMP_pressure;BME280_temperature;BME280_humidity;BME280_pressure;Samples;Min_cycle;Max_cycle;Signal;HPM_P1;HPM_P2
2021/07/18 00:00:30;;;;;;;10.70;5.37;;;17.40;99.90;;;;;;4376596;32;20172;-63
2021/07/18 00:03:00;;;;;;;9.93;6.20;;;17.40;99.90;;;;;;4377207;32;20235;-64
2021/07/18 00:05:26;;;;;;;9.23;5.50;;;17.30;99.90;;;;;;4376768;32;20564;-63
2021/07/18 00:07:53;;;;;;;9.27;6.30;;;17.30;99.90;;;;;;4375953;32;20585;-64
2021/07/18 00:10:27;;;;;;;7.60;5.57;;;17.30;99.90;;;;;;4376394;32;20184;-64
2021/07/18 00:12:53;;;;;;;10.80;5.57;;;17.30;99.90;;;;;;4376002;32;20479;-63
2021/07/18 00:15:30;;;;;;;11.73;5.77;;;17.20;99.90;;;;;;4376724;32;20163;-64
2021/07/18 00:17:59;;;;;;;7.80;5.30;;;17.20;99.90;;;;;;4375477;32;20204;-63
2021/07/18 00:20:26;;;;;;;9.67;5.50;;;17.20;99.90;;;;;;4375888;32;20214;-63
2021/07/18 00:22:53;;;;;;;10.13;6.40;;;17.20;99.90;;;;;;4374196;32;20202;-63
2021/07/18 00:25:21;;;;;;;9.67;5.87;;;17.20;99.90;;;;;;4374784;32;20164;-64
2021/07/18 00:27:48;;;;;;;11.30;6.10;;;17.20;99.90;;;;;;4374281;32;20226;-64
2021/07/18 00:30:15;;;;;;;11.77;6.50;;;17.20;99.90;;;;;;4376109;32;20216;-64
2021/07/18 00:32:43;;;;;;;11.20;7.03;;;17.10;99.90;;;;;;4376724;32;20481;-64
2021/07/18 00:35:10;;;;;;;9.80;5.80;;;17.10;99.90;;;;;;4376862;32;20156;-64
2021/07/18 00:37:37;;;;;;;9.60;6.33;;;17.10;99.90;;;;;;4375211;32;20576;-64
2021/07/18 00:40:06;;;;;;;11.10;6.47;;;17.10;99.90;;;;;;4375898;32;20579;-64
2021/07/18 00:42:34;;;;;;;15.93;7.20;;;17.10;99.90;;;;;;4376441;32;20181;-64
2021/07/18 00:45:02;;;;;;;10.87;6.60;;;17.10;99.90;;;;;;4376628;32;20216;-63
2021/07/18 00:47:29;;;;;;;10.70;6.23;;;17.00;99.90;;;;;;4376212;32;20543;-64
2021/07/18 00:49:58;;;;;;;11.97;6.67;;;17.00;99.90;;;;;;4375650;32;20211;-63
2021/07/18 00:52:30;;;;;;;8.33;6.33;;;17.00;99.90;;;;;;4376488;32;20222;-64
2021/07/18 00:54:57;;;;;;;12.70;6.30;;;17.00;99.90;;;;;;4376137;32;20164;-63
2021/07/18 00:57:25;;;;;;;8.70;5.83;;;16.90;99.90;;;;;;4376273;32;20195;-63
2021/07/18 00:59:53;;;;;;;10.70;5.80;;;16.90;99.90;;;;;;4378363;32;20228;-63
2021/07/18 01:02:20;;;;;;;8.03;6.00;;;16.90;99.90;;;;;;4375777;32;20161;-63
2021/07/18 01:04:47;;;;;;;9.83;5.30;;;16.90;99.90;;;;;;4375670;32;20171;-63
2021/07/18 01:07:14;;;;;;;11.27;5.67;;;16.90;99.90;;;;;;4363838;32;20220;-63
2021/07/18 01:09:41;;;;;;;8.47;5.80;;;16.90;99.90;;;;;;4373604;32;20171;-62
2021/07/18 01:12:08;;;;;;;9.97;5.73;;;16.80;99.90;;;;;;4376180;32;20164;-63
2021/07/18 01:14:35;;;;;;;12.00;6.37;;;16.80;99.90;;;;;;4375515;32;20152;-63
2021/07/18 01:17:03;;;;;;;11.43;6.00;;;16.80;99.90;;;;;;4376920;32;20169;-62
2021/07/18 01:19:34;;;;;;;11.80;6.43;;;16.80;99.90;;;;;;4370062;32;20588;-63
2021/07/18 01:22:04;;;;;;;9.63;5.53;;;16.80;99.90;;;;;;4375948;32;20164;-63
2021/07/18 01:24:32;;;;;;;11.30;5.53;;;16.80;99.90;;;;;;4376222;32;20186;-63
2021/07/18 01:26:59;;;;;;;11.00;5.63;;;16.80;99.90;;;;;;4375653;32;20192;-63
2021/07/18 01:29:28;;;;;;;9.67;6.40;;;16.80;99.90;;;;;;4371584;32;20217;-62
2021/07/18 01:31:55;;;;;;;8.97;5.87;;;16.70;99.90;;;;;;4371997;32;20218;-62
2021/07/18 01:34:21;;;;;;;9.87;5.80;;;16.70;99.90;;;;;;4375488;32;20171;-62
2021/07/18 01:36:49;;;;;;;13.40;6.33;;;16.70;99.90;;;;;;4375179;32;20601;-63
2021/07/18 01:39:17;;;;;;;7.20;6.10;;;16.70;99.90;;;;;;4373647;32;20210;-62
2021/07/18 01:41:44;;;;;;;13.73;6.63;;;16.70;99.90;;;;;;4372302;32;20203;-63
2021/07/18 01:44:11;;;;;;;11.60;6.13;;;16.60;99.90;;;;;;4375398;32;20156;-63
2021/07/18 01:46:38;;;;;;;11.33;7.13;;;16.60;99.90;;;;;;4374970;32;20666;-63
2021/07/18 01:49:07;;;;;;;11.00;6.67;;;16.60;99.90;;;;;;4363176;32;20184;-63
2021/07/18 01:51:51;;;;;;;10.43;6.30;;;16.60;99.90;;;;;;4359099;32;20235;-64
2021/07/18 01:54:32;;;;;;;8.93;6.27;;;16.60;99.90;;;;;;4361436;32;20640;-63
2021/07/18 01:57:12;;;;;;;9.73;6.37;;;16.60;99.90;;;;;;4359968;32;20207;-62
2021/07/18 01:59:39;;;;;;;16.10;7.57;;;16.60;99.90;;;;;;4357406;32;20224;-63
2021/07/18 02:02:11;;;;;;;9.97;6.57;;;16.60;99.90;;;;;;4361008;32;20262;-63
2021/07/18 02:04:46;;;;;;;13.10;6.80;;;16.50;99.90;;;;;;4358469;32;20267;-62
2021/07/18 02:07:12;;;;;;;9.73;7.20;;;16.50;99.90;;;;;;4359248;32;20262;-63
2021/07/18 02:09:41;;;;;;;11.67;7.80;;;16.50;99.90;;;;;;4369392;32;20171;-62
2021/07/18 02:12:08;;;;;;;11.30;7.50;;;16.50;99.90;;;;;;4373310;32;20175;-62
2021/07/18 02:14:35;;;;;;;11.63;7.03;;;16.40;99.90;;;;;;4377001;32;20161;-62
2021/07/18 02:17:02;;;;;;;8.60;6.90;;;16.50;99.90;;;;;;4375034;32;20180;-63
2021/07/18 02:19:30;;;;;;;11.30;8.03;;;16.50;99.90;;;;;;4375253;32;20208;-62
2021/07/18 02:21:58;;;;;;;12.83;7.13;;;16.50;99.90;;;;;;4373539;32;20228;-64
2021/07/18 02:24:25;;;;;;;12.57;8.13;;;16.40;99.90;;;;;;4374989;32;20171;-63
2021/07/18 02:26:54;;;;;;;9.47;7.20;;;16.40;99.90;;;;;;4375203;32;20216;-63
2021/07/18 02:29:21;;;;;;;10.60;7.47;;;16.40;99.90;;;;;;4375003;32;20171;-63
2021/07/18 02:31:50;;;;;;;13.93;7.37;;;16.40;99.90;;;;;;4384052;32;20187;-63
2021/07/18 02:34:16;;;;;;;15.07;7.37;;;16.30;99.90;;;;;;4376755;32;20590;-63
2021/07/18 02:36:46;;;;;;;13.33;8.27;;;16.40;99.90;;;;;;4375088;32;20157;-63
2021/07/18 02:39:13;;;;;;;10.13;7.93;;;16.30;99.90;;;;;;4375881;32;20219;-62
2021/07/18 02:41:40;;;;;;;12.80;7.60;;;16.30;99.90;;;;;;4372536;32;20228;-62
2021/07/18 02:44:08;;;;;;;10.57;7.87;;;16.30;99.90;;;;;;4374937;32;20172;-63
2021/07/18 02:46:37;;;;;;;14.63;9.00;;;16.30;99.90;;;;;;4374298;32;20160;-63
2021/07/18 02:49:05;;;;;;;11.50;7.93;;;16.30;99.90;;;;;;4374820;32;20192;-62
2021/07/18 02:51:31;;;;;;;11.30;8.63;;;16.30;99.90;;;;;;4373498;32;20216;-63
2021/07/18 02:53:58;;;;;;;12.63;8.63;;;16.30;99.90;;;;;;4375547;32;20182;-63
2021/07/18 02:56:25;;;;;;;11.93;8.37;;;16.20;99.90;;;;;;4374945;32;20656;-62
2021/07/18 02:58:52;;;;;;;13.60;9.23;;;16.20;99.90;;;;;;4375634;32;20489;-63
2021/07/18 03:01:20;;;;;;;13.70;9.50;;;16.20;99.90;;;;;;4372572;32;20601;-63
2021/07/18 03:03:47;;;;;;;12.87;8.07;;;16.20;99.90;;;;;;4372759;32;20527;-62
2021/07/18 03:06:14;;;;;;;14.37;9.00;;;16.20;99.90;;;;;;4374463;32;20196;-63
2021/07/18 03:08:44;;;;;;;12.27;8.80;;;16.20;99.90;;;;;;4375620;32;20199;-62
2021/07/18 03:11:11;;;;;;;14.03;9.83;;;16.10;99.90;;;;;;4374393;32;20168;-63
2021/07/18 03:13:38;;;;;;;14.27;9.43;;;16.20;99.90;;;;;;4374366;32;20548;-62
2021/07/18 03:16:05;;;;;;;13.87;9.67;;;16.20;99.90;;;;;;4377312;32;20543;-63
2021/07/18 03:18:33;;;;;;;13.53;10.10;;;16.10;99.90;;;;;;4377509;32;20179;-63
2021/07/18 03:21:00;;;;;;;16.97;10.63;;;16.10;99.90;;;;;;4378296;32;20228;-63
2021/07/18 03:23:28;;;;;;;13.23;10.13;;;16.10;99.90;;;;;;4368290;32;20191;-62
2021/07/18 03:26:01;;;;;;;17.57;10.83;;;16.10;99.90;;;;;;4378968;32;20230;-63
2021/07/18 03:28:28;;;;;;;19.80;9.97;;;16.10;99.90;;;;;;4377588;32;20156;-62
2021/07/18 03:30:57;;;;;;;12.87;10.07;;;16.10;99.90;;;;;;4377055;32;20164;-63
2021/07/18 03:33:23;;;;;;;13.80;10.73;;;16.10;99.90;;;;;;4369770;32;20152;-62
2021/07/18 03:35:53;;;;;;;14.10;10.30;;;16.10;99.90;;;;;;4377305;32;20205;-62
2021/07/18 03:38:20;;;;;;;15.93;9.33;;;16.10;99.90;;;;;;4377418;32;20584;-63
2021/07/18 03:40:47;;;;;;;16.63;10.27;;;16.10;99.90;;;;;;4377124;32;20596;-62
2021/07/18 03:43:15;;;;;;;15.33;10.70;;;16.10;99.90;;;;;;4370029;32;20191;-63
2021/07/18 03:45:42;;;;;;;14.30;10.47;;;16.10;99.90;;;;;;4376198;32;20191;-61
2021/07/18 03:48:09;;;;;;;16.20;9.63;;;16.10;99.90;;;;;;4377660;32;20164;-62
2021/07/18 03:50:36;;;;;;;16.03;10.70;;;16.10;99.90;;;;;;4377169;32;20152;-63
2021/07/18 03:53:04;;;;;;;14.33;10.50;;;16.10;99.90;;;;;;4370390;32;20202;-62
2021/07/18 03:55:31;;;;;;;12.63;10.23;;;16.10;99.90;;;;;;4366054;32;20588;-63
2021/07/18 03:57:58;;;;;;;14.53;10.33;;;16.10;99.90;;;;;;4374377;32;20294;-63
2021/07/18 04:00:25;;;;;;;13.63;10.47;;;16.10;99.90;;;;;;4376607;32;20216;-63
2021/07/18 04:02:51;;;;;;;14.33;10.40;;;16.10;99.90;;;;;;4374487;32;20216;-62
2021/07/18 04:05:18;;;;;;;15.67;11.73;;;16.10;99.90;;;;;;4369235;32;20175;-62
2021/07/18 04:07:45;;;;;;;15.30;9.77;;;16.10;99.90;;;;;;4370548;32;20187;-62
2021/07/18 04:10:21;;;;;;;18.00;10.17;;;16.10;99.90;;;;;;4367845;32;20172;-63
2021/07/18 04:12:51;;;;;;;18.77;10.77;;;16.10;99.90;;;;;;4367923;32;20255;-62
2021/07/18 04:15:17;;;;;;;13.73;10.50;;;16.20;99.90;;;;;;4367625;32;20236;-63
2021/07/18 04:17:54;;;;;;;18.77;11.33;;;16.20;99.90;;;;;;4369535;32;20255;-62
2021/07/18 04:20:24;;;;;;;18.23;11.07;;;16.30;99.90;;;;;;4370154;32;20169;-63
2021/07/18 04:22:52;;;;;;;16.50;11.33;;;16.30;99.90;;;;;;4362418;32;20175;-62
2021/07/18 04:25:21;;;;;;;15.30;10.20;;;16.40;99.90;;;;;;4371162;32;20518;-63
2021/07/18 04:27:48;;;;;;;14.17;10.97;;;16.40;99.90;;;;;;4369401;32;20183;-62
2021/07/18 04:30:15;;;;;;;14.30;10.27;;;16.40;99.90;;;;;;4371880;32;20190;-62
2021/07/18 04:32:42;;;;;;;12.97;10.17;;;16.50;99.90;;;;;;4384543;32;20208;-63
2021/07/18 04:35:10;;;;;;;15.13;10.40;;;16.50;99.90;;;;;;4374313;32;20228;-62
2021/07/18 04:37:40;;;;;;;12.57;10.00;;;16.60;99.90;;;;;;4376049;32;20212;-62
2021/07/18 04:40:08;;;;;;;13.37;9.80;;;16.60;99.90;;;;;;4376836;32;20172;-63
2021/07/18 04:42:36;;;;;;;16.27;9.40;;;16.70;99.90;;;;;;4376547;32;20210;-62
2021/07/18 04:45:03;;;;;;;13.07;9.17;;;16.80;99.90;;;;;;4373015;32;20227;-62
2021/07/18 04:47:30;;;;;;;14.37;9.20;;;16.80;99.90;;;;;;4376837;32;20179;-62
2021/07/18 04:50:00;;;;;;;12.47;9.17;;;16.90;99.90;;;;;;4376322;32;20458;-63
2021/07/18 04:52:30;;;;;;;11.80;8.93;;;17.10;99.90;;;;;;4377191;32;20164;-63
2021/07/18 04:54:57;;;;;;;15.50;9.03;;;17.20;99.90;;;;;;4369986;32;20161;-63
2021/07/18 04:57:24;;;;;;;15.27;9.20;;;17.30;99.90;;;;;;4363300;32;20153;-62
2021/07/18 04:59:52;;;;;;;15.20;9.90;;;17.50;99.90;;;;;;4372098;32;20216;-63
2021/07/18 05:02:20;;;;;;;13.53;9.10;;;17.70;99.90;;;;;;4376423;32;20156;-63
2021/07/18 05:04:47;;;;;;;17.00;9.93;;;17.70;99.90;;;;;;4374055;32;20175;-62
2021/07/18 05:07:14;;;;;;;12.33;8.53;;;17.70;99.90;;;;;;4375674;32;20176;-62
2021/07/18 05:09:40;;;;;;;15.93;8.73;;;17.70;99.90;;;;;;4376204;32;20496;-63
2021/07/18 05:12:08;;;;;;;12.97;8.87;;;17.70;99.90;;;;;;4375480;32;20151;-62
2021/07/18 05:14:35;;;;;;;10.23;8.53;;;17.80;99.90;;;;;;4374157;32;20219;-63
2021/07/18 05:17:06;;;;;;;12.50;8.00;;;17.90;99.90;;;;;;4376454;32;20576;-63
2021/07/18 05:19:32;;;;;;;12.03;8.30;;;18.00;99.90;;;;;;4375776;32;20633;-63
2021/07/18 05:22:00;;;;;;;10.63;7.80;;;18.00;99.90;;;;;;4375862;32;20174;-62
2021/07/18 05:24:28;;;;;;;11.40;8.20;;;18.10;99.90;;;;;;4375356;32;20156;-62
2021/07/18 05:26:55;;;;;;;13.07;8.30;;;18.30;99.90;;;;;;4374627;32;20263;-62
2021/07/18 05:29:22;;;;;;;10.80;7.57;;;18.60;99.90;;;;;;4375369;32;20165;-63
2021/07/18 05:31:49;;;;;;;10.27;6.17;;;20.60;99.90;;;;;;4375895;32;20152;-63
2021/07/18 05:34:17;;;;;;;10.27;6.07;;;25.00;99.90;;;;;;4375445;32;20207;-65
2021/07/18 05:36:44;;;;;;;6.33;5.17;;;29.10;99.90;;;;;;4372403;32;20173;-64
2021/07/18 05:39:11;;;;;;;7.50;4.95;;;32.00;97.10;;;;;;4375805;32;20175;-63
2021/07/18 05:41:39;;;;;;;6.30;4.47;;;34.10;93.40;;;;;;4375997;32;20144;-63
2021/07/18 05:44:06;;;;;;;7.12;4.25;;;35.50;85.00;;;;;;4375169;32;20152;-64
2021/07/18 05:46:33;;;;;;;9.45;4.62;;;36.00;78.10;;;;;;4368244;32;20160;-64
2021/07/18 05:49:00;;;;;;;7.50;4.95;;;34.50;77.20;;;;;;4375430;32;20482;-64
2021/07/18 05:51:31;;;;;;;6.43;5.03;;;31.80;81.40;;;;;;4375645;32;20160;-63
2021/07/18 05:53:58;;;;;;;8.50;5.12;;;29.10;91.00;;;;;;4375507;32;20561;-64
2021/07/18 05:56:26;;;;;;;6.72;5.07;;;27.10;97.60;;;;;;4374061;32;20224;-64
2021/07/18 05:58:55;;;;;;;12.25;5.45;;;25.80;99.90;;;;;;4375114;32;20172;-63
2021/07/18 06:01:21;;;;;;;5.87;5.03;;;25.10;99.90;;;;;;4374791;32;20187;-63
2021/07/18 06:03:48;;;;;;;7.82;5.53;;;24.30;99.90;;;;;;4376219;32;20483;-64
2021/07/18 06:06:15;;;;;;;9.45;6.05;;;23.60;99.90;;;;;;4372537;32;20540;-65
2021/07/18 06:08:43;;;;;;;6.47;5.07;;;22.90;99.90;;;;;;4375093;32;20584;-63
2021/07/18 06:11:10;;;;;;;6.40;4.80;;;22.50;99.90;;;;;;4375656;32;20175;-63
2021/07/18 06:13:37;;;;;;;7.63;4.63;;;22.20;99.90;;;;;;4374522;32;20233;-64
2021/07/18 06:16:04;;;;;;;10.23;5.80;;;22.00;99.90;;;;;;4372985;32;20156;-63
2021/07/18 06:18:31;;;;;;;10.37;5.70;;;21.50;99.90;;;;;;4374224;32;20160;-63
2021/07/18 06:20:58;;;;;;;9.43;6.33;;;21.20;99.90;;;;;;4373526;32;20191;-64
2021/07/18 06:23:24;;;;;;;9.00;5.07;;;21.00;99.90;;;;;;4374842;32;20626;-64
2021/07/18 06:25:53;;;;;;;10.17;4.90;;;21.00;99.90;;;;;;4373594;32;20164;-63
2021/07/18 06:28:19;;;;;;;10.00;5.07;;;20.90;99.90;;;;;;4372563;32;20160;-63
2021/07/18 06:30:46;;;;;;;6.17;4.63;;;20.90;99.90;;;;;;4373875;32;20156;-63
2021/07/18 06:33:14;;;;;;;9.33;5.63;;;20.90;99.90;;;;;;4374278;32;20160;-64
2021/07/18 06:35:41;;;;;;;10.27;5.67;;;20.80;99.90;;;;;;4373974;32;20175;-63
2021/07/18 06:38:08;;;;;;;7.90;5.70;;;20.80;99.90;;;;;;4372640;32;20535;-62
2021/07/18 06:40:37;;;;;;;10.73;4.77;;;20.60;99.90;;;;;;4373691;32;20167;-63
2021/07/18 06:43:05;;;;;;;7.87;4.10;;;20.60;99.90;;;;;;4373987;32;20171;-62
2021/07/18 06:45:37;;;;;;;8.13;5.27;;;20.70;99.90;;;;;;4372162;32;20160;-63
2021/07/18 06:48:04;;;;;;;6.87;4.13;;;20.80;99.90;;;;;;4374037;32;20592;-64
2021/07/18 06:50:33;;;;;;;8.57;4.17;;;20.70;99.90;;;;;;4376845;32;20175;-62
2021/07/18 06:53:00;;;;;;;5.30;3.80;;;20.90;99.90;;;;;;4377328;32;20189;-62
2021/07/18 06:55:29;;;;;;;7.07;3.90;;;20.80;99.90;;;;;;4372277;32;20211;-63
2021/07/18 06:57:55;;;;;;;8.13;3.83;;;20.80;99.90;;;;;;4375757;32;20472;-62
2021/07/18 07:00:24;;;;;;;5.50;3.70;;;20.70;99.90;;;;;;4376401;32;20270;-63
2021/07/18 07:02:51;;;;;;;9.40;4.40;;;20.70;99.90;;;;;;4376681;32;20627;-63
2021/07/18 07:05:18;;;;;;;10.30;3.60;;;20.70;99.90;;;;;;4373757;32;20493;-64
2021/07/18 07:07:47;;;;;;;7.97;3.80;;;20.80;99.90;;;;;;4376616;32;20187;-63
2021/07/18 07:10:15;;;;;;;7.47;3.60;;;20.80;99.90;;;;;;4376435;32;20172;-63
2021/07/18 07:12:42;;;;;;;4.40;2.70;;;20.90;99.90;;;;;;4376623;32;20190;-64
2021/07/18 07:15:10;;;;;;;4.53;2.77;;;21.00;99.90;;;;;;4375605;32;20216;-63
2021/07/18 07:17:41;;;;;;;6.13;2.90;;;21.20;99.90;;;;;;4376401;32;20168;-63
2021/07/18 07:20:12;;;;;;;4.87;2.80;;;21.30;99.90;;;;;;4376187;32;20634;-63
2021/07/18 07:22:41;;;;;;;3.63;2.43;;;21.30;99.90;;;;;;4375314;32;20207;-63
2021/07/18 07:25:10;;;;;;;4.43;2.63;;;21.60;99.90;;;;;;4375471;32;20191;-63
2021/07/18 07:27:37;;;;;;;6.20;2.60;;;22.10;99.90;;;;;;4375846;32;20243;-64
2021/07/18 07:30:06;;;;;;;5.73;2.60;;;22.30;99.90;;;;;;4376221;32;20153;-62
2021/07/18 07:32:33;;;;;;;5.67;2.50;;;22.60;99.90;;;;;;4375809;32;20571;-64
2021/07/18 07:35:03;;;;;;;6.03;2.63;;;22.70;99.90;;;;;;4375885;32;20195;-64
2021/07/18 07:37:32;;;;;;;3.57;2.90;;;22.80;99.90;;;;;;4374924;32;20172;-63
2021/07/18 07:39:58;;;;;;;5.33;2.80;;;22.50;99.90;;;;;;4375876;32;20579;-63
2021/07/18 07:42:25;;;;;;;6.27;3.07;;;22.50;99.90;;;;;;4377233;32;20686;-63
2021/07/18 07:44:53;;;;;;;8.93;2.70;;;22.90;99.90;;;;;;4376138;32;20179;-63
2021/07/18 07:47:20;;;;;;;5.27;2.60;;;23.60;99.90;;;;;;4375882;32;20223;-64
2021/07/18 07:49:47;;;;;;;4.27;2.33;;;23.70;99.90;;;;;;4376051;32;20160;-62
2021/07/18 07:52:16;;;;;;;4.60;2.67;;;23.80;99.90;;;;;;4376799;32;20215;-63
2021/07/18 07:54:43;;;;;;;7.13;2.57;;;23.60;99.90;;;;;;4375465;32;20168;-63
2021/07/18 07:57:10;;;;;;;8.32;2.58;;;23.50;99.90;;;;;;4375435;32;20152;-63
2021/07/18 07:59:37;;;;;;;6.50;2.67;;;23.80;99.90;;;;;;4375417;32;20179;-64
2021/07/18 08:02:05;;;;;;;6.30;2.40;;;23.90;99.90;;;;;;4368818;32;20240;-65
2021/07/18 08:04:32;;;;;;;5.47;1.70;;;24.40;99.90;;;;;;4365508;32;20190;-63
2021/07/18 08:06:58;;;;;;;6.00;2.30;;;24.50;99.90;;;;;;4369069;32;20160;-63
2021/07/18 08:09:27;;;;;;;4.12;2.05;;;24.80;99.90;;;;;;4367418;32;20815;-64
2021/07/18 08:11:54;;;;;;;3.50;1.70;;;25.60;99.90;;;;;;4367516;32;20176;-65
2021/07/18 08:14:21;;;;;;;5.00;1.60;;;26.20;99.90;;;;;;4366073;32;20654;-62
2021/07/18 08:16:48;;;;;;;3.10;1.65;;;27.80;99.10;;;;;;4367710;32;20160;-64
2021/07/18 08:19:14;;;;;;;3.55;1.52;;;32.50;91.20;;;;;;4363588;32;20235;-66
2021/07/18 08:21:42;;;;;;;3.28;1.75;;;38.90;71.10;;;;;;4369104;32;20199;-64
2021/07/18 08:24:09;;;;;;;3.67;1.62;;;42.60;55.30;;;;;;4366523;32;20183;-63
2021/07/18 08:26:41;;;;;;;3.58;1.50;;;47.10;47.60;;;;;;4368692;32;20184;-61
2021/07/18 08:29:08;;;;;;;4.50;1.30;;;49.30;41.50;;;;;;4364165;32;20633;-62
2021/07/18 08:31:44;;;;;;;3.72;1.70;;;50.30;37.60;;;;;;4361373;32;20331;-62
2021/07/18 08:34:10;;;;;;;4.85;1.60;;;51.60;37.40;;;;;;4347222;32;20690;-64
2021/07/18 08:36:40;;;;;;;4.90;1.70;;;49.60;35.70;;;;;;4346034;32;20265;-60
2021/07/18 08:39:07;;;;;;;4.28;1.65;;;50.10;35.70;;;;;;4365600;32;20192;-63
2021/07/18 08:41:43;;;;;;;2.65;1.50;;;51.40;34.30;;;;;;4366612;32;20149;-63
2021/07/18 08:44:12;;;;;;;3.47;1.40;;;50.90;34.90;;;;;;4365562;32;20182;-63
2021/07/18 08:46:40;;;;;;;3.00;1.52;;;52.40;34.40;;;;;;4364956;32;20153;-64
2021/07/18 08:49:07;;;;;;;4.53;1.58;;;53.20;33.60;;;;;;4358168;32;20192;-66
2021/07/18 08:51:34;;;;;;;3.33;1.65;;;54.00;32.80;;;;;;4352794;32;20203;-67
2021/07/18 08:54:02;;;;;;;5.28;1.83;;;53.90;32.50;;;;;;4362560;32;20221;-65
2021/07/18 08:56:32;;;;;;;5.05;1.70;;;54.60;32.00;;;;;;4360716;32;20176;-65
2021/07/18 08:58:59;;;;;;;4.22;1.65;;;55.00;32.00;;;;;;4361158;32;20526;-64
2021/07/18 09:01:29;;;;;;;2.35;1.50;;;55.60;31.80;;;;;;4369592;32;20220;-65
2021/07/18 09:03:56;;;;;;;4.20;1.62;;;55.70;31.50;;;;;;4375010;32;20496;-65
2021/07/18 09:06:22;;;;;;;2.58;1.50;;;55.80;31.40;;;;;;4374433;32;20176;-62
2021/07/18 09:08:51;;;;;;;3.47;1.52;;;56.30;31.50;;;;;;4374660;32;20185;-64
2021/07/18 09:11:21;;;;;;;1.75;1.33;;;56.20;30.90;;;;;;4372149;32;20352;-65
2021/07/18 09:13:59;;;;;;;3.72;1.62;;;56.60;30.50;;;;;;4374600;32;20211;-64
2021/07/18 09:16:29;;;;;;;3.55;2.00;;;56.40;30.90;;;;;;4375490;32;20607;-64
2021/07/18 09:19:15;;;;;;;2.53;1.15;;;56.50;30.60;;;;;;4375305;32;20214;-65
2021/07/18 09:21:50;;;;;;;2.42;1.50;;;56.50;30.30;;;;;;4375322;32;20160;-65
2021/07/18 09:24:21;;;;;;;4.53;1.50;;;56.10;30.00;;;;;;4374419;32;20603;-65
2021/07/18 09:27:04;;;;;;;3.53;1.37;;;55.70;30.40;;;;;;4373869;32;20506;-66
2021/07/18 09:29:31;;;;;;;4.95;1.80;;;55.80;30.30;;;;;;4375715;32;20178;-65
2021/07/18 09:32:11;;;;;;;3.53;1.37;;;55.60;30.50;;;;;;4374306;32;20212;-65
2021/07/18 09:34:39;;;;;;;2.12;1.60;;;55.60;30.40;;;;;;4372949;32;20206;-65
2021/07/18 09:37:09;;;;;;;4.15;1.70;;;55.10;30.40;;;;;;4375099;32;20197;-65
2021/07/18 09:39:37;;;;;;;5.00;1.90;;;54.90;31.10;;;;;;4372299;32;20200;-64
2021/07/18 09:42:04;;;;;;;4.45;1.70;;;54.20;30.80;;;;;;4372956;32;20537;-66
2021/07/18 09:44:43;;;;;;;4.68;1.50;;;54.20;31.00;;;;;;4368971;32;20172;-63
2021/07/18 09:47:12;;;;;;;3.55;1.45;;;53.80;31.10;;;;;;4375269;32;20560;-64
2021/07/18 09:49:40;;;;;;;7.32;1.95;;;52.50;31.60;;;;;;4375254;32;20188;-65
2021/07/18 09:52:20;;;;;;;4.40;1.77;;;49.80;33.30;;;;;;4373822;32;20235;-65
2021/07/18 09:54:48;;;;;;;2.75;1.80;;;45.40;35.50;;;;;;4375440;32;20191;-64
2021/07/18 09:57:40;;;;;;;4.70;1.70;;;41.40;38.10;;;;;;4375504;32;20199;-66
2021/07/18 10:00:09;;;;;;;3.62;2.10;;;38.20;41.60;;;;;;4375519;32;20696;-64
2021/07/18 10:02:40;;;;;;;3.33;1.70;;;36.30;44.60;;;;;;4374156;32;20264;-64
2021/07/18 10:05:15;;;;;;;3.92;2.28;;;34.60;46.50;;;;;;4373602;32;20184;-65
2021/07/18 10:07:42;;;;;;;3.17;1.73;;;33.50;49.10;;;;;;4375891;32;20175;-65
2021/07/18 10:10:10;;;;;;;2.40;1.83;;;32.80;49.40;;;;;;4374409;32;20211;-65
2021/07/18 10:12:38;;;;;;;3.62;2.08;;;32.30;51.50;;;;;;4372949;32;20223;-64
2021/07/18 10:15:06;;;;;;;2.78;1.83;;;31.80;52.10;;;;;;4375444;32;20195;-64
2021/07/18 10:17:33;;;;;;;4.70;2.00;;;31.40;52.70;;;;;;4375051;32;20220;-64
2021/07/18 10:20:01;;;;;;;2.35;2.15;;;31.10;54.10;;;;;;4375938;32;20600;-64
2021/07/18 10:22:29;;;;;;;3.00;2.00;;;30.90;55.30;;;;;;4373854;32;20224;-65
2021/07/18 10:24:56;;;;;;;8.35;2.40;;;30.80;55.30;;;;;;4374822;32;20161;-63
2021/07/18 10:27:23;;;;;;;2.95;2.15;;;30.60;55.80;;;;;;4375168;32;20198;-64
2021/07/18 10:29:52;;;;;;;2.83;2.22;;;30.30;57.30;;;;;;4376495;32;20144;-64
2021/07/18 10:32:20;;;;;;;5.43;2.60;;;30.10;57.80;;;;;;4373770;32;20175;-65
2021/07/18 10:34:52;;;;;;;7.97;2.20;;;29.80;59.50;;;;;;4372990;32;20279;-65
2021/07/18 10:37:20;;;;;;;5.47;1.98;;;29.80;59.70;;;;;;4372773;32;20208;-65
2021/07/18 10:39:47;;;;;;;3.03;1.73;;;29.80;61.60;;;;;;4372318;32;20175;-65
2021/07/18 10:42:17;;;;;;;2.85;1.75;;;29.80;61.80;;;;;;4372187;32;20164;-65
2021/07/18 10:44:46;;;;;;;4.12;1.73;;;29.70;61.70;;;;;;4373071;32;20233;-65
2021/07/18 10:47:13;;;;;;;4.45;2.50;;;29.60;61.50;;;;;;4380518;32;20173;-66
2021/07/18 10:49:59;;;;;;;2.90;1.70;;;29.50;62.30;;;;;;4389092;32;20233;-64
2021/07/18 10:52:32;;;;;;;2.62;2.00;;;29.30;62.30;;;;;;4377125;32;20211;-64
2021/07/18 10:55:00;;;;;;;2.17;1.80;;;29.20;63.90;;;;;;4373568;32;20178;-64
2021/07/18 10:57:36;;;;;;;4.45;2.33;;;29.20;63.90;;;;;;4374276;32;20176;-63
2021/07/18 11:00:20;;;;;;;3.17;2.12;;;29.10;65.20;;;;;;4375325;32;20178;-64
2021/07/18 11:02:47;;;;;;;3.15;1.95;;;29.10;65.70;;;;;;4367260;32;20152;-63
2021/07/18 11:05:18;;;;;;;4.93;2.40;;;29.20;65.80;;;;;;4361626;32;20212;-65
2021/07/18 11:07:58;;;;;;;2.10;1.90;;;29.10;66.10;;;;;;4382651;32;20207;-65
2021/07/18 11:10:25;;;;;;;3.05;2.10;;;29.10;67.40;;;;;;4374620;32;20223;-64
2021/07/18 11:13:01;;;;;;;2.80;2.15;;;29.00;67.10;;;;;;4373370;32;20149;-64
2021/07/18 11:15:38;;;;;;;5.57;2.03;;;28.90;67.60;;;;;;4374402;32;20167;-65
2021/07/18 11:18:07;;;;;;;3.87;1.98;;;29.00;68.50;;;;;;4367164;32;20224;-65
2021/07/18 11:20:54;;;;;;;4.90;2.45;;;28.90;69.10;;;;;;4373150;32;20186;-64
2021/07/18 11:23:28;;;;;;;3.25;2.30;;;28.80;68.40;;;;;;4372176;32;20164;-63
2021/07/18 11:25:59;;;;;;;2.87;1.92;;;28.70;69.40;;;;;;4373619;32;20176;-63
2021/07/18 11:29:01;;;;;;;3.12;1.83;;;28.70;70.80;;;;;;4360279;32;20145;-64
2021/07/18 11:31:45;;;;;;;2.90;1.90;;;28.60;71.60;;;;;;4374427;32;20174;-64
2021/07/18 11:34:20;;;;;;;2.80;1.87;;;28.60;71.90;;;;;;4363541;32;20153;-64
2021/07/18 11:37:02;;;;;;;3.85;1.98;;;28.60;72.80;;;;;;4375799;32;20553;-64
2021/07/18 11:39:32;;;;;;;3.10;1.95;;;28.60;72.60;;;;;;4376880;32;20152;-64
2021/07/18 11:42:04;;;;;;;4.22;1.98;;;28.60;73.00;;;;;;4376730;32;20160;-65
2021/07/18 11:44:32;;;;;;;3.95;2.25;;;28.60;73.70;;;;;;4375211;32;20161;-65
2021/07/18 11:47:08;;;;;;;5.75;2.35;;;28.60;73.40;;;;;;4376283;32;20164;-65
2021/07/18 11:49:38;;;;;;;4.35;2.10;;;28.70;74.70;;;;;;4375454;32;20186;-65
2021/07/18 11:52:08;;;;;;;3.30;2.15;;;28.70;74.40;;;;;;4377028;32;20610;-65
2021/07/18 11:54:37;;;;;;;4.03;2.00;;;28.80;75.30;;;;;;4374528;32;20275;-65
2021/07/18 11:57:10;;;;;;;2.40;2.00;;;29.00;75.40;;;;;;4374927;32;20228;-65
2021/07/18 11:59:39;;;;;;;3.22;2.42;;;28.80;74.40;;;;;;4377468;32;20196;-65
2021/07/18 12:02:07;;;;;;;3.30;2.60;;;28.70;75.00;;;;;;4375247;32;20160;-65
2021/07/18 12:04:34;;;;;;;4.15;2.20;;;28.70;74.50;;;;;;4376223;32;20203;-64
2021/07/18 12:07:03;;;;;;;4.35;1.83;;;28.70;76.10;;;;;;4374036;32;20160;-64
2021/07/18 12:09:31;;;;;;;3.42;2.40;;;28.70;75.00;;;;;;4376798;32;20164;-64
2021/07/18 12:12:01;;;;;;;4.55;2.45;;;28.70;76.70;;;;;;4373657;32;20250;-64
2021/07/18 12:14:32;;;;;;;3.25;2.03;;;28.70;77.20;;;;;;4374014;32;20193;-65
2021/07/18 12:16:59;;;;;;;3.90;2.60;;;28.70;75.40;;;;;;4377980;32;20223;-64
2021/07/18 12:19:28;;;;;;;5.12;2.30;;;28.80;76.40;;;;;;4377127;32;20255;-64
2021/07/18 12:21:57;;;;;;;6.25;2.30;;;28.60;77.00;;;;;;4374510;32;20194;-65
2021/07/18 12:24:27;;;;;;;4.22;2.03;;;28.70;77.10;;;;;;4373906;32;20157;-64
2021/07/18 12:27:10;;;;;;;4.15;2.58;;;28.60;74.70;;;;;;4374568;32;20165;-64
2021/07/18 12:29:39;;;;;;;4.62;2.03;;;28.70;77.00;;;;;;4374371;32;20211;-64
2021/07/18 12:32:08;;;;;;;2.55;2.10;;;28.70;77.20;;;;;;4376373;32;20228;-65
2021/07/18 12:34:37;;;;;;;3.65;2.10;;;28.70;76.70;;;;;;4376930;32;20592;-64
2021/07/18 12:37:06;;;;;;;2.37;2.12;;;28.60;76.10;;;;;;4376461;32;20287;-65
2021/07/18 12:39:35;;;;;;;4.15;2.75;;;28.70;77.40;;;;;;4376839;32;20224;-65
2021/07/18 12:42:04;;;;;;;3.87;2.62;;;28.80;76.40;;;;;;4374851;32;20164;-64
2021/07/18 12:44:36;;;;;;;5.57;2.60;;;28.60;76.70;;;;;;4375078;32;20292;-64
2021/07/18 12:47:21;;;;;;;3.85;2.00;;;28.50;77.10;;;;;;4374811;32;20157;-63
2021/07/18 12:50:08;;;;;;;2.70;2.50;;;28.60;78.30;;;;;;4375734;32;20231;-64
2021/07/18 12:52:36;;;;;;;2.37;2.17;;;28.70;77.30;;;;;;4375571;32;20218;-65